Time;durP1;ratioP1;P1;durP2;ratioP2;P2;SDS_P1;SDS_P2;PMS_P1;PMS_P2;Temp;Humidity;BMP_temperature;BMP_pressure;BME280_temperature;BME280_humidity;BME280_pressure;Samples;Min_cycle;Max_cycle;Signal;HPM_P1;HPM_P2
2023/03/02 00:01:52;;;;;;;;;;;;;;;;;;6151798;23;19982;-88
2023/03/02 00:04:19;;;;;;;;;;;;;;;;;;6149170;23;19995;-88
2023/03/02 00:06:45;;;;;;;;;;;;;;;;;;6176153;23;20027;-88
2023/03/02 00:09:11;;;;;;;;;;;;;;;;;;6150815;23;20627;-87
2023/03/02 00:11:38;;;;;;;;;;;;;;;;;;6149314;23;19920;-88
2023/03/02 00:14:03;;;;;;;;;;;;;;;;;;6153026;23;20243;-87
2023/03/02 00:16:29;;;;;;;;;;;;;;;;;;6150455;23;19920;-87
2023/03/02 00:18:56;;;;;;;;;;;;;;;;;;6151107;23;19920;-88
2023/03/02 00:21:23;;;;;;;;;;;;;;;;;;6172442;23;19973;-88
2023/03/02 00:23:50;;;;;;;;;;;;;;;;;;6151451;23;19923;-88
2023/03/02 00:26:16;;;;;;;;;;;;;;;;;;6175263;23;19920;-88
2023/03/02 00:28:42;;;;;;;;;;;;;;;;;;6175801;23;20344;-88
2023/03/02 00:31:08;;;;;;;;;;;;;;;;;;6154016;23;19994;-88
2023/03/02 00:33:34;;;;;;;;;;;;;;;;;;6175035;23;20662;-88
2023/03/02 00:36:00;;;;;;;;;;;;;;;;;;6153891;23;19998;-88
2023/03/02 00:38:29;;;;;;;;;;;;;;;;;;6202376;23;19959;-88
2023/03/02 00:40:55;;;;;;;;;;;;;;;;;;6155346;23;19990;-88
2023/03/02 00:43:26;;;;;;;;;;;;;;;;;;6178319;23;20007;-88
2023/03/02 00:45:51;;;;;;;;;;;;;;;;;;6156372;23;20322;-88
2023/03/02 00:48:17;;;;;;;;;;;;;;;;;;6152401;23;19920;-88
2023/03/02 00:50:43;;;;;;;;;;;;;;;;;;6153198;23;19990;-88
2023/03/02 00:53:09;;;;;;;;;;;;;;;;;;6154729;23;20222;-87
2023/03/02 00:55:35;;;;;;;;;;;;;;;;;;6152452;23;19933;-87
2023/03/02 00:58:01;;;;;;;;;;;;;;;;;;6179554;23;19922;-87
2023/03/02 01:00:27;;;;;;;;;;;;;;;;;;6154778;23;19959;-87
2023/03/02 01:02:53;;;;;;;;;;;;;;;;;;6156056;23;19951;-87
2023/03/02 01:05:19;;;;;;;;;;;;;;;;;;6174823;23;19924;-88
2023/03/02 01:07:45;;;;;;;;;;;;;;;;;;6148457;23;19992;-87
2023/03/02 01:10:11;;;;;;;;;;;;;;;;;;6152550;23;20329;-87
2023/03/02 01:12:37;;;;;;;;;;;;;;;;;;6173286;23;19924;-87
2023/03/02 01:15:03;;;;;;;;;;;;;;;;;;6152702;23;19923;-88
2023/03/02 01:17:29;;;;;;;;;;;;;;;;;;6175802;23;20426;-88
2023/03/02 01:19:55;;;;;;;;;;;;;;;;;;6152862;23;19920;-87
2023/03/02 01:22:22;;;;;;;;;;;;;;;;;;6201959;23;20360;-88
2023/03/02 01:24:48;;;;;;;;;;;;;;;;;;6178765;23;20367;-87
2023/03/02 01:27:13;;;;;;;;;;;;;;;;;;6176198;23;19920;-87
2023/03/02 01:29:39;;;;;;;;;;;;;;;;;;6152459;23;19920;-87
2023/03/02 01:32:05;;;;;;;;;;;;;;;;;;6204469;23;20328;-87
2023/03/02 01:34:31;;;;;;;;;;;;;;;;;;6202957;23;19950;-86
2023/03/02 01:36:58;;;;;;;;;;;;;;;;;;6152731;23;19920;-87
2023/03/02 01:39:24;;;;;;;;;;;;;;;;;;6175438;23;20012;-87
2023/03/02 01:41:50;;;;;;;;;;;;;;;;;;6177076;23;20011;-86
2023/03/02 01:44:16;;;;;;;;;;;;;;;;;;6174987;23;19951;-86
2023/03/02 01:46:41;;;;;;;;;;;;;;;;;;6180066;23;20003;-86
2023/03/02 01:49:07;;;;;;;;;;;;;;;;;;6207442;23;19951;-87
2023/03/02 01:51:33;;;;;;;;;;;;;;;;;;6176748;23;19920;-87
2023/03/02 01:53:59;;;;;;;;;;;;;;;;;;6204031;23;19919;-87
2023/03/02 01:56:25;;;;;;;;;;;;;;;;;;6174353;23;19923;-87
2023/03/02 01:58:51;;;;;;;;;;;;;;;;;;6177962;23;19966;-86
2023/03/02 02:01:17;;;;;;;;;;;;;;;;;;6173244;23;19920;-87
2023/03/02 02:03:43;;;;;;;;;;;;;;;;;;6151060;23;20586;-87
2023/03/02 02:06:09;;;;;;;;;;;;;;;;;;6178835;23;20343;-86
2023/03/02 02:08:35;;;;;;;;;;;;;;;;;;6148459;23;20497;-86
2023/03/02 02:11:01;;;;;;;;;;;;;;;;;;6152717;23;19924;-87
2023/03/02 02:13:27;;;;;;;;;;;;;;;;;;6174551;23;19935;-86
2023/03/02 02:15:53;;;;;;;;;;;;;;;;;;6177706;23;19919;-87
2023/03/02 02:18:19;;;;;;;;;;;;;;;;;;6151911;23;20034;-86
2023/03/02 02:20:45;;;;;;;;;;;;;;;;;;6178693;23;19924;-87
2023/03/02 02:23:11;;;;;;;;;;;;;;;;;;6155458;23;19916;-87
2023/03/02 02:25:38;;;;;;;;;;;;;;;;;;6176930;23;19970;-87
2023/03/02 02:28:07;;;;;;;;;;;;;;;;;;6176373;23;19987;-87
2023/03/02 02:30:33;;;;;;;;;;;;;;;;;;6174644;23;19920;-87
2023/03/02 02:32:59;;;;;;;;;;;;;;;;;;6152903;23;20393;-87
2023/03/02 02:35:26;;;;;;;;;;;;;;;;;;6175147;23;20006;-87
2023/03/02 02:37:52;;;;;;;;;;;;;;;;;;6177305;23;19939;-87
2023/03/02 02:40:18;;;;;;;;;;;;;;;;;;6173624;23;20329;-87
2023/03/02 02:42:44;;;;;;;;;;;;;;;;;;6201021;23;20321;-87
2023/03/02 02:45:10;;;;;;;;;;;;;;;;;;6175715;23;19927;-87
2023/03/02 02:47:36;;;;;;;;;;;;;;;;;;6173249;23;19923;-87
2023/03/02 02:50:02;;;;;;;;;;;;;;;;;;6174657;23;19920;-87
2023/03/02 02:52:28;;;;;;;;;;;;;;;;;;6150431;23;19916;-87
2023/03/02 02:54:54;;;;;;;;;;;;;;;;;;6150339;23;19927;-87
2023/03/02 02:57:20;;;;;;;;;;;;;;;;;;6146147;23;19920;-87
2023/03/02 02:59:46;;;;;;;;;;;;;;;;;;6174173;23;20284;-87
2023/03/02 03:02:12;;;;;;;;;;;;;;;;;;6174292;23;19974;-87
2023/03/02 03:04:38;;;;;;;;;;;;;;;;;;6172462;23;20230;-87
2023/03/02 03:07:04;;;;;;;;;;;;;;;;;;6150185;23;20363;-87
2023/03/02 03:09:30;;;;;;;;;;;;;;;;;;6146396;23;19920;-87
2023/03/02 03:11:56;;;;;;;;;;;;;;;;;;6201043;23;20654;-87
2023/03/02 03:14:22;;;;;;;;;;;;;;;;;;6148308;23;20371;-87
2023/03/02 03:16:48;;;;;;;;;;;;;;;;;;6149989;23;19919;-86
2023/03/02 03:19:14;;;;;;;;;;;;;;;;;;6200942;23;19920;-87
2023/03/02 03:21:39;;;;;;;;;;;;;;;;;;6173562;23;19978;-87
2023/03/02 03:24:05;;;;;;;;;;;;;;;;;;6172021;23;19970;-87
2023/03/02 03:26:31;;;;;;;;;;;;;;;;;;6173489;23;20011;-87
2023/03/02 03:28:57;;;;;;;;;;;;;;;;;;6175439;23;20084;-86
2023/03/02 03:31:23;;;;;;;;;;;;;;;;;;6199292;23;20292;-86
2023/03/02 03:33:49;;;;;;;;;;;;;;;;;;6175174;23;20722;-87
2023/03/02 03:36:16;;;;;;;;;;;;;;;;;;6171407;23;19927;-87
2023/03/02 03:38:42;;;;;;;;;;;;;;;;;;6150259;23;20328;-87
2023/03/02 03:41:08;;;;;;;;;;;;;;;;;;6173595;23;20012;-87
2023/03/02 03:43:34;;;;;;;;;;;;;;;;;;6147709;23;20390;-87
2023/03/02 03:46:00;;;;;;;;;;;;;;;;;;6177315;23;20311;-87
2023/03/02 03:48:26;;;;;;;;;;;;;;;;;;6148019;23;19923;-87
2023/03/02 03:50:52;;;;;;;;;;;;;;;;;;6152537;23;20340;-87
2023/03/02 03:53:18;;;;;;;;;;;;;;;;;;6149186;23;19973;-87
2023/03/02 03:55:44;;;;;;;;;;;;;;;;;;6173638;23;19920;-87
2023/03/02 03:58:10;;;;;;;;;;;;;;;;;;6171884;23;20013;-87
2023/03/02 04:00:36;;;;;;;;;;;;;;;;;;6171564;23;19951;-87
2023/03/02 04:03:02;;;;;;;;;;;;;;;;;;6152053;23;19923;-87
2023/03/02 04:05:28;;;;;;;;;;;;;;;;;;6172975;23;19935;-87
2023/03/02 04:07:54;;;;;;;;;;;;;;;;;;6176646;23;19926;-87
2023/03/02 04:10:20;;;;;;;;;;;;;;;;;;6150279;23;19916;-87
2023/03/02 04:12:46;;;;;;;;;;;;;;;;;;6152839;23;20027;-87
2023/03/02 04:15:12;;;;;;;;;;;;;;;;;;6152157;23;19983;-87
2023/03/02 04:17:38;;;;;;;;;;;;;;;;;;6173972;23;20214;-87
2023/03/02 04:20:08;;;;;;;;;;;;;;;;;;6149791;23;19920;-87
2023/03/02 04:22:34;;;;;;;;;;;;;;;;;;6172942;23;20022;-87
2023/03/02 04:25:00;;;;;;;;;;;;;;;;;;6151701;23;20363;-87
2023/03/02 04:27:26;;;;;;;;;;;;;;;;;;6172575;23;19926;-87
2023/03/02 04:29:52;;;;;;;;;;;;;;;;;;6151731;23;19919;-86
2023/03/02 04:32:18;;;;;;;;;;;;;;;;;;6148831;23;19978;-87
2023/03/02 04:34:43;;;;;;;;;;;;;;;;;;6149800;23;19954;-87
2023/03/02 04:37:09;;;;;;;;;;;;;;;;;;6147629;23;19920;-87
2023/03/02 04:39:35;;;;;;;;;;;;;;;;;;6170028;23;19920;-86
2023/03/02 04:42:01;;;;;;;;;;;;;;;;;;6154534;23;19924;-87
2023/03/02 04:44:27;;;;;;;;;;;;;;;;;;6150549;23;19927;-87
2023/03/02 04:46:53;;;;;;;;;;;;;;;;;;6152527;23;19920;-87
2023/03/02 04:49:19;;;;;;;;;;;;;;;;;;6150400;23;19971;-87
2023/03/02 04:51:45;;;;;;;;;;;;;;;;;;6149954;23;19963;-87
2023/03/02 04:54:11;;;;;;;;;;;;;;;;;;6176627;23;20446;-86
2023/03/02 04:56:37;;;;;;;;;;;;;;;;;;6172861;23;19998;-87
2023/03/02 04:59:03;;;;;;;;;;;;;;;;;;6152496;23;19920;-87
2023/03/02 05:01:29;;;;;;;;;;;;;;;;;;6146801;23;19942;-87
2023/03/02 05:03:55;;;;;;;;;;;;;;;;;;6175252;23;20040;-87
2023/03/02 05:06:23;;;;;;;;;;;;;;;;;;6149307;23;20325;-87
2023/03/02 05:08:49;;;;;;;;;;;;;;;;;;6175260;23;19939;-87
2023/03/02 05:11:21;;;;;;;;;;;;;;;;;;6173121;23;20792;-87
2023/03/02 05:13:46;;;;;;;;;;;;;;;;;;6152530;23;20241;-86
2023/03/02 05:16:15;;;;;;;;;;;;;;;;;;6153145;23;19920;-86
2023/03/02 05:18:41;;;;;;;;;;;;;;;;;;6175808;23;20023;-86
2023/03/02 05:21:07;;;;;;;;;;;;;;;;;;6149514;23;20345;-87
2023/03/02 05:23:33;;;;;;;;;;;;;;;;;;6145872;23;19920;-86
2023/03/02 05:25:59;;;;;;;;;;;;;;;;;;6148783;23;19927;-86
2023/03/02 05:28:25;;;;;;;;;;;;;;;;;;6170221;23;19920;-86
2023/03/02 05:30:51;;;;;;;;;;;;;;;;;;6148547;23;19931;-87
2023/03/02 05:33:17;;;;;;;;;;;;;;;;;;6198405;23;19974;-87
2023/03/02 05:35:43;;;;;;;;;;;;;;;;;;6149654;23;19991;-87
2023/03/02 05:38:10;;;;;;;;;;;;;;;;;;6199897;23;19959;-86
2023/03/02 05:40:36;;;;;;;;;;;;;;;;;;6171912;23;19939;-87
2023/03/02 05:43:02;;;;;;;;;;;;;;;;;;6177758;23;19920;-87
2023/03/02 05:45:28;;;;;;;;;;;;;;;;;;6150144;23;19928;-87
2023/03/02 05:47:54;;;;;;;;;;;;;;;;;;6176445;23;20337;-87
2023/03/02 05:50:20;;;;;;;;;;;;;;;;;;6171611;23;20003;-87
2023/03/02 05:52:46;;;;;;;;;;;;;;;;;;6201197;23;19924;-86
2023/03/02 05:55:12;;;;;;;;;;;;;;;;;;6203689;23;19983;-87
2023/03/02 05:57:41;;;;;;;;;;;;;;;;;;6151180;23;19958;-87
2023/03/02 06:00:08;;;;;;;;;;;;;;;;;;6201536;23;19924;-87
2023/03/02 06:02:34;;;;;;;;;;;;;;;;;;6175447;23;19977;-87
2023/03/02 06:05:00;;;;;;;;;;;;;;;;;;6153071;23;20308;-87
2023/03/02 06:07:26;;;;;;;;;;;;;;;;;;6150178;23;19927;-87
2023/03/02 06:09:52;;;;;;;;;;;;;;;;;;6176140;23;20732;-87
2023/03/02 06:12:18;;;;;;;;;;;;;;;;;;6149482;23;20412;-88
2023/03/02 06:14:45;;;;;;;;;;;;;;;;;;6175506;23;19916;-87
2023/03/02 06:17:11;;;;;;;;;;;;;;;;;;6178805;23;19967;-87
2023/03/02 06:19:37;;;;;;;;;;;;;;;;;;6176644;23;19923;-86
2023/03/02 06:22:09;;;;;;;;;;;;;;;;;;6169406;23;19927;-87
2023/03/02 06:24:35;;;;;;;;;;;;;;;;;;6199860;23;20323;-86
2023/03/02 06:27:01;;;;;;;;;;;;;;;;;;6154857;23;19991;-86
2023/03/02 06:29:27;;;;;;;;;;;;;;;;;;6196902;23;19923;-86
2023/03/02 06:31:53;;;;;;;;;;;;;;;;;;6200354;23;19969;-86
2023/03/02 06:34:19;;;;;;;;;;;;;;;;;;6199046;23;19920;-86
2023/03/02 06:36:45;;;;;;;;;;;;;;;;;;6199710;23;19942;-86
2023/03/02 06:39:14;;;;;;;;;;;;;;;;;;6200997;23;19916;-87
2023/03/02 06:41:40;;;;;;;;;;;;;;;;;;6204384;23;19963;-86
2023/03/02 06:44:06;;;;;;;;;;;;;;;;;;6201244;23;20222;-86
2023/03/02 06:46:32;;;;;;;;;;;;;;;;;;6171866;23;20255;-87
2023/03/02 06:48:58;;;;;;;;;;;;;;;;;;6174827;23;20248;-86
2023/03/02 06:51:24;;;;;;;;;;;;;;;;;;6147328;23;19924;-86
2023/03/02 06:53:50;;;;;;;;;;;;;;;;;;6149094;23;19920;-86
2023/03/02 06:56:16;;;;;;;;;;;;;;;;;;6148029;23;20019;-86
2023/03/02 06:58:42;;;;;;;;;;;;;;;;;;6178124;23;19927;-86
2023/03/02 07:01:08;;;;;;;;;;;;;;;;;;6177790;23;19947;-86
2023/03/02 07:03:34;;;;;;;;;;;;;;;;;;6175970;23;20970;-87
2023/03/02 07:06:00;;;;;;;;;;;;;;;;;;6177761;23;19920;-86
2023/03/02 07:08:26;;;;;;;;;;;;;;;;;;6174940;23;19970;-87
2023/03/02 07:10:52;;;;;;;;;;;;;;;;;;6176824;23;19919;-86
2023/03/02 07:13:18;;;;;;;;;;;;;;;;;;6173323;23;19962;-86
2023/03/02 07:15:44;;;;;;;;;;;;;;;;;;6178643;23;19920;-86
2023/03/02 07:18:10;;;;;;;;;;;;;;;;;;6178189;23;20677;-86
2023/03/02 07:20:37;;;;;;;;;;;;;;;;;;6150553;23;20226;-86
2023/03/02 07:23:03;;;;;;;;;;;;;;;;;;6152397;23;20355;-86
2023/03/02 07:25:29;;;;;;;;;;;;;;;;;;6148686;23;19920;-87
2023/03/02 07:27:55;;;;;;;;;;;;;;;;;;6153292;23;20260;-87
2023/03/02 07:30:21;;;;;;;;;;;;;;;;;;6175110;23;19920;-86
2023/03/02 07:32:47;;;;;;;;;;;;;;;;;;6178824;23;19927;-86
2023/03/02 07:35:13;;;;;;;;;;;;;;;;;;6178595;23;19924;-86
2023/03/02 07:37:39;;;;;;;;;;;;;;;;;;6203623;23;19926;-86
2023/03/02 07:40:05;;;;;;;;;;;;;;;;;;6203143;23;19959;-86
2023/03/02 07:42:31;;;;;;;;;;;;;;;;;;6176076;23;19920;-86
2023/03/02 07:44:57;;;;;;;;;;;;;;;;;;6205392;23;20309;-87
2023/03/02 07:47:23;;;;;;;;;;;;;;;;;;6176522;23;19919;-86
2023/03/02 07:49:49;;;;;;;;;;;;;;;;;;6205428;23;19924;-86
2023/03/02 07:52:15;;;;;;;;;;;;;;;;;;6203638;23;20352;-86
2023/03/02 07:54:41;;;;;;;;;;;;;;;;;;6178301;23;20466;-86
2023/03/02 07:57:07;;;;;;;;;;;;;;;;;;6203984;23;19920;-87
2023/03/02 07:59:33;;;;;;;;;;;;;;;;;;6199737;23;19923;-86
2023/03/02 08:01:58;;;;;;;;;;;;;;;;;;6150112;23;19934;-86
2023/03/02 08:04:24;;;;;;;;;;;;;;;;;;6171559;23;20272;-87
2023/03/02 08:06:50;;;;;;;;;;;;;;;;;;6199508;23;19920;-86
2023/03/02 08:09:16;;;;;;;;;;;;;;;;;;6149671;23;19930;-87
2023/03/02 08:11:43;;;;;;;;;;;;;;;;;;6179967;23;19923;-86
2023/03/02 08:14:09;;;;;;;;;;;;;;;;;;6179618;23;19920;-86
2023/03/02 08:16:35;;;;;;;;;;;;;;;;;;6150345;23;19919;-86
2023/03/02 08:19:01;;;;;;;;;;;;;;;;;;6177242;23;20011;-86
2023/03/02 08:21:27;;;;;;;;;;;;;;;;;;6169778;23;20034;-86
2023/03/02 08:23:53;;;;;;;;;;;;;;;;;;6172694;23;19923;-86
2023/03/02 08:26:19;;;;;;;;;;;;;;;;;;6146414;23;19926;-87
2023/03/02 08:28:45;;;;;;;;;;;;;;;;;;6171045;23;19919;-86
2023/03/02 08:31:11;;;;;;;;;;;;;;;;;;6154326;23;19974;-86
2023/03/02 08:33:37;;;;;;;;;;;;;;;;;;6202867;23;19959;-86
2023/03/02 08:36:03;;;;;;;;;;;;;;;;;;6205163;23;20325;-86
2023/03/02 08:38:29;;;;;;;;;;;;;;;;;;6174488;23;19920;-86
2023/03/02 08:40:55;;;;;;;;;;;;;;;;;;6152861;23;19924;-86
2023/03/02 08:43:21;;;;;;;;;;;;;;;;;;6202885;23;19931;-87
2023/03/02 08:45:46;;;;;;;;;;;;;;;;;;6179568;23;19924;-86
2023/03/02 08:48:13;;;;;;;;;;;;;;;;;;6205179;23;19919;-87
2023/03/02 08:50:39;;;;;;;;;;;;;;;;;;6177352;23;20333;-86
2023/03/02 08:53:05;;;;;;;;;;;;;;;;;;6180936;23;19926;-86
2023/03/02 08:55:31;;;;;;;;;;;;;;;;;;6203383;23;19919;-86
2023/03/02 08:57:57;;;;;;;;;;;;;;;;;;6181047;23;19971;-86
2023/03/02 09:00:22;;;;;;;;;;;;;;;;;;6151276;23;19924;-87
2023/03/02 09:02:48;;;;;;;;;;;;;;;;;;6175952;23;19926;-86
2023/03/02 09:05:14;;;;;;;;;;;;;;;;;;6174296;23;20303;-86
2023/03/02 09:07:40;;;;;;;;;;;;;;;;;;6151995;23;20516;-87
2023/03/02 09:10:06;;;;;;;;;;;;;;;;;;6175827;23;20006;-86
2023/03/02 09:12:32;;;;;;;;;;;;;;;;;;6173633;23;19966;-87
2023/03/02 09:14:58;;;;;;;;;;;;;;;;;;6151273;23;20376;-86
2023/03/02 09:17:24;;;;;;;;;;;;;;;;;;6200875;23;19951;-87
2023/03/02 09:19:50;;;;;;;;;;;;;;;;;;6200289;23;20252;-86
2023/03/02 09:22:17;;;;;;;;;;;;;;;;;;6172094;23;19928;-86
2023/03/02 09:24:43;;;;;;;;;;;;;;;;;;6177002;23;19951;-86
2023/03/02 09:27:09;;;;;;;;;;;;;;;;;;6150848;23;19920;-86
2023/03/02 09:29:35;;;;;;;;;;;;;;;;;;6149181;23;19951;-86
2023/03/02 09:32:01;;;;;;;;;;;;;;;;;;6202576;23;19931;-86
2023/03/02 09:34:27;;;;;;;;;;;;;;;;;;6172181;23;19924;-86
2023/03/02 09:36:53;;;;;;;;;;;;;;;;;;6175592;23;19919;-86
2023/03/02 09:39:19;;;;;;;;;;;;;;;;;;6171498;23;19919;-86
2023/03/02 09:41:45;;;;;;;;;;;;;;;;;;6175362;23;19924;-86
2023/03/02 09:44:11;;;;;;;;;;;;;;;;;;6173198;23;19923;-87
2023/03/02 09:46:37;;;;;;;;;;;;;;;;;;6147820;23;19924;-87
2023/03/02 09:49:03;;;;;;;;;;;;;;;;;;6149083;23;19927;-87
2023/03/02 09:51:29;;;;;;;;;;;;;;;;;;6148698;23;19920;-87
2023/03/02 09:53:55;;;;;;;;;;;;;;;;;;6202102;23;19920;-87
2023/03/02 09:56:21;;;;;;;;;;;;;;;;;;6201884;23;20083;-86
2023/03/02 09:58:47;;;;;;;;;;;;;;;;;;6178565;23;19931;-86
2023/03/02 10:01:13;;;;;;;;;;;;;;;;;;6153221;23;19920;-86
2023/03/02 10:03:39;;;;;;;;;;;;;;;;;;6176472;23;20340;-86
2023/03/02 10:06:05;;;;;;;;;;;;;;;;;;6178613;23;19926;-87
2023/03/02 10:08:31;;;;;;;;;;;;;;;;;;6175229;23;19919;-86
2023/03/02 10:10:57;;;;;;;;;;;;;;;;;;6154406;23;19924;-86
2023/03/02 10:13:23;;;;;;;;;;;;;;;;;;6174451;23;19930;-87
2023/03/02 10:15:49;;;;;;;;;;;;;;;;;;6179131;23;19926;-86
2023/03/02 10:18:15;;;;;;;;;;;;;;;;;;6178073;23;19926;-86
2023/03/02 10:20:40;;;;;;;;;;;;;;;;;;6152602;23;19924;-87
2023/03/02 10:23:06;;;;;;;;;;;;;;;;;;6175975;23;19966;-86
2023/03/02 10:25:32;;;;;;;;;;;;;;;;;;6173731;23;19935;-86
2023/03/02 10:27:58;;;;;;;;;;;;;;;;;;6176867;23;19919;-86
2023/03/02 10:30:26;;;;;;;;;;;;;;;;;;6149166;23;19986;-86
2023/03/02 10:32:52;;;;;;;;;;;;;;;;;;6175187;23;19924;-86
2023/03/02 10:35:19;;;;;;;;;;;;;;;;;;6174820;23;19927;-86
2023/03/02 10:37:45;;;;;;;;;;;;;;;;;;6154127;23;20313;-86
2023/03/02 10:40:11;;;;;;;;;;;;;;;;;;6154492;23;19927;-86
2023/03/02 10:42:39;;;;;;;;;;;;;;;;;;6152360;23;19926;-86
2023/03/02 10:45:05;;;;;;;;;;;;;;;;;;6153746;23;19915;-86
2023/03/02 10:47:31;;;;;;;;;;;;;;;;;;6150616;23;19920;-86
2023/03/02 10:49:57;;;;;;;;;;;;;;;;;;6153151;23;19930;-87
2023/03/02 10:52:23;;;;;;;;;;;;;;;;;;6174910;23;19927;-86
2023/03/02 10:54:48;;;;;;;;;;;;;;;;;;6152338;23;19983;-86
2023/03/02 10:57:14;;;;;;;;;;;;;;;;;;6151008;23;19920;-87
2023/03/02 10:59:42;;;;;;;;;;;;;;;;;;6178498;23;19920;-86
2023/03/02 11:02:08;;;;;;;;;;;;;;;;;;6175599;23;19920;-87
2023/03/02 11:04:34;;;;;;;;;;;;;;;;;;6174769;23;19920;-86
2023/03/02 11:07:00;;;;;;;;;;;;;;;;;;6151245;23;19923;-87
2023/03/02 11:09:26;;;;;;;;;;;;;;;;;;6174953;23;19951;-87
2023/03/02 11:11:52;;;;;;;;;;;;;;;;;;6177537;23;19920;-86
2023/03/02 11:14:18;;;;;;;;;;;;;;;;;;6150742;23;19986;-87
2023/03/02 11:16:43;;;;;;;;;;;;;;;;;;6150846;23;19921;-86
2023/03/02 11:19:09;;;;;;;;;;;;;;;;;;6150977;23;20257;-87
2023/03/02 11:21:35;;;;;;;;;;;;;;;;;;6173405;23;19946;-87
2023/03/02 11:24:01;;;;;;;;;;;;;;;;;;6176730;23;19920;-86
2023/03/02 11:26:27;;;;;;;;;;;;;;;;;;6172812;23;19920;-86
2023/03/02 11:28:53;;;;;;;;;;;;;;;;;;6174587;23;19920;-86
2023/03/02 11:31:19;;;;;;;;;;;;;;;;;;6147192;23;20057;-86
2023/03/02 11:33:45;;;;;;;;;;;;;;;;;;6151897;23;19981;-87
2023/03/02 11:36:11;;;;;;;;;;;;;;;;;;6177415;23;20337;-87
2023/03/02 11:38:37;;;;;;;;;;;;;;;;;;6174187;23;20300;-87
2023/03/02 11:41:03;;;;;;;;;;;;;;;;;;6150266;23;19945;-87
2023/03/02 11:43:30;;;;;;;;;;;;;;;;;;6146314;23;19990;-87
2023/03/02 11:45:56;;;;;;;;;;;;;;;;;;6176519;23;20261;-87
2023/03/02 11:48:22;;;;;;;;;;;;;;;;;;6149469;23;19926;-86
2023/03/02 11:50:48;;;;;;;;;;;;;;;;;;6153380;23;20257;-86
2023/03/02 11:53:14;;;;;;;;;;;;;;;;;;6174965;23;19916;-87
2023/03/02 11:55:40;;;;;;;;;;;;;;;;;;6175155;23;20011;-86
2023/03/02 11:58:06;;;;;;;;;;;;;;;;;;6175622;23;19920;-86
2023/03/02 12:00:32;;;;;;;;;;;;;;;;;;6148515;23;20035;-87
2023/03/02 12:02:58;;;;;;;;;;;;;;;;;;6174870;23;20028;-87
2023/03/02 12:05:24;;;;;;;;;;;;;;;;;;6200975;23;19919;-87
2023/03/02 12:07:50;;;;;;;;;;;;;;;;;;6179190;23;20214;-86
2023/03/02 12:10:16;;;;;;;;;;;;;;;;;;6177642;23;19931;-86
2023/03/02 12:12:42;;;;;;;;;;;;;;;;;;6180201;23;19919;-86
2023/03/02 12:15:08;;;;;;;;;;;;;;;;;;6155346;23;20333;-86
2023/03/02 12:17:35;;;;;;;;;;;;;;;;;;6204272;23;19987;-87
2023/03/02 12:20:03;;;;;;;;;;;;;;;;;;6203653;23;20206;-86
2023/03/02 12:22:29;;;;;;;;;;;;;;;;;;6148423;23;19924;-86
2023/03/02 12:24:55;;;;;;;;;;;;;;;;;;6177070;23;19963;-87
2023/03/02 12:27:24;;;;;;;;;;;;;;;;;;6175482;23;19927;-87
2023/03/02 12:29:50;;;;;;;;;;;;;;;;;;6204721;23;19919;-87
2023/03/02 12:32:16;;;;;;;;;;;;;;;;;;6151165;23;20008;-86
2023/03/02 12:34:42;;;;;;;;;;;;;;;;;;6203891;23;19955;-87
2023/03/02 12:37:08;;;;;;;;;;;;;;;;;;6177962;23;20323;-87
2023/03/02 12:39:34;;;;;;;;;;;;;;;;;;6150768;23;20462;-87
2023/03/02 12:42:00;;;;;;;;;;;;;;;;;;6153419;23;19931;-87
2023/03/02 12:44:26;;;;;;;;;;;;;;;;;;6150413;23;19920;-86
2023/03/02 12:46:52;;;;;;;;;;;;;;;;;;6177522;23;19920;-87
2023/03/02 12:49:18;;;;;;;;;;;;;;;;;;6148972;23;19995;-87
2023/03/02 12:51:44;;;;;;;;;;;;;;;;;;6181817;23;19916;-86
2023/03/02 12:54:10;;;;;;;;;;;;;;;;;;6152513;23;19923;-87
2023/03/02 12:56:36;;;;;;;;;;;;;;;;;;6150685;23;20540;-87
2023/03/02 12:59:02;;;;;;;;;;;;;;;;;;6150306;23;19927;-87
2023/03/02 13:01:28;;;;;;;;;;;;;;;;;;6172642;23;20369;-87
2023/03/02 13:03:54;;;;;;;;;;;;;;;;;;6152002;23;20562;-87
2023/03/02 13:06:21;;;;;;;;;;;;;;;;;;6149654;23;20377;-87
2023/03/02 13:08:47;;;;;;;;;;;;;;;;;;6151998;23;19927;-87
2023/03/02 13:11:16;;;;;;;;;;;;;;;;;;6149427;23;19919;-86
2023/03/02 13:13:42;;;;;;;;;;;;;;;;;;6148940;23;20259;-87
2023/03/02 13:16:08;;;;;;;;;;;;;;;;;;6176718;23;19986;-86
2023/03/02 13:18:34;;;;;;;;;;;;;;;;;;6174805;23;19920;-87
2023/03/02 13:21:00;;;;;;;;;;;;;;;;;;6178559;23;19924;-87
2023/03/02 13:23:26;;;;;;;;;;;;;;;;;;6173004;23;19974;-86
2023/03/02 13:26:07;;;;;;;;;;;;;;;;;;6177846;23;19920;-87
2023/03/02 13:28:36;;;;;;;;;;;;;;;;;;6148977;23;19924;-87
2023/03/02 13:31:02;;;;;;;;;;;;;;;;;;6151708;23;19987;-87
2023/03/02 13:33:28;;;;;;;;;;;;;;;;;;6174890;23;19919;-86
2023/03/02 13:35:55;;;;;;;;;;;;;;;;;;6177589;23;19920;-85
2023/03/02 13:38:21;;;;;;;;;;;;;;;;;;6148914;23;19916;-87
2023/03/02 13:40:47;;;;;;;;;;;;;;;;;;6178164;23;19928;-87
2023/03/02 13:43:13;;;;;;;;;;;;;;;;;;6203940;23;20284;-87
2023/03/02 13:45:39;;;;;;;;;;;;;;;;;;6201607;23;19995;-87
2023/03/02 13:48:07;;;;;;;;;;;;;;;;;;6176422;23;19973;-87
2023/03/02 13:50:33;;;;;;;;;;;;;;;;;;6198436;23;20367;-87
2023/03/02 13:53:01;;;;;;;;;;;;;;;;;;6199794;23;20368;-87
2023/03/02 13:55:27;;;;;;;;;;;;;;;;;;6202281;23;19932;-87
2023/03/02 13:57:53;;;;;;;;;;;;;;;;;;6176625;23;19991;-87
2023/03/02 14:00:19;;;;;;;;;;;;;;;;;;6174156;23;19945;-87
2023/03/02 14:02:46;;;;;;;;;;;;;;;;;;6202344;23;19924;-87
2023/03/02 14:05:12;;;;;;;;;;;;;;;;;;6201701;23;20352;-86
2023/03/02 14:07:38;;;;;;;;;;;;;;;;;;6203681;23;19920;-87
2023/03/02 14:10:04;;;;;;;;;;;;;;;;;;6182593;23;20226;-86
2023/03/02 14:12:31;;;;;;;;;;;;;;;;;;6151736;23;19951;-87
2023/03/02 14:14:57;;;;;;;;;;;;;;;;;;6157720;23;19959;-87
2023/03/02 14:17:23;;;;;;;;;;;;;;;;;;6155523;23;19920;-87
2023/03/02 14:19:51;;;;;;;;;;;;;;;;;;6156280;23;19916;-86
2023/03/02 14:22:20;;;;;;;;;;;;;;;;;;6150163;23;19931;-86
2023/03/02 14:24:52;;;;;;;;;;;;;;;;;;6152403;23;19924;-86
2023/03/02 14:40:10;;;;;;;;;;;;;;;;;;6149403;23;19916;-86
2023/03/02 14:45:46;;;;;;;;;;;;;;;;;;6140682;23;19927;-87
2023/03/02 14:51:23;;;;;;;;;;;;;;;;;;6147606;23;19927;-87
2023/03/02 14:53:54;;;;;;;;;;;;;;;;;;6089211;23;20091;-87
2023/03/02 14:59:28;;;;;;;;;;;;;;;;;;;;;
2023/03/02 15:04:47;;;;;;;;;;;;;;;;;;6001453;23;19924;-87
2023/03/02 15:10:05;;;;;;;;;;;;;;;;;;5996944;23;19957;-87
2023/03/02 15:15:18;;;;;;;;;;;;;;;;;;6260641;22;20340;-92
2023/03/02 15:17:44;;;;;;;;;;;;;;;;;;6210604;22;20418;-92
2023/03/02 15:20:10;;;;;;;;;;;;;;;;;;6210714;22;19930;-93
2023/03/02 15:22:36;;;;;;;;;;;;;;;;;;6207582;22;20217;-92
2023/03/02 15:28:20;;;;;;;;;;;;;;;;;;6256765;22;19953;-91
2023/03/02 15:31:00;;;;;;;;;;;;;;;;;;6211455;22;19968;-93
2023/03/02 15:33:31;;;;;;;;;;;;;;;;;;6248288;22;19997;-93
2023/03/02 15:36:05;;;;;;;;;;;;;;;;;;6232593;22;19923;-93
2023/03/02 15:39:00;;;;;;;;;;;;;;;;;;6233429;22;20350;-93
2023/03/02 15:41:41;;;;;;;;;;;;;;;;;;6203837;22;19930;-93
2023/03/02 15:44:09;;;;;;;;;;;;;;;;;;6232626;22;19915;-95
2023/03/02 15:46:38;;;;;;;;;;;;;;;;;;6138366;23;20328;-93
2023/03/02 15:49:10;;;;;;;;;;;;;;;;;;6116962;23;19951;-93
2023/03/02 15:51:44;;;;;;;;;;;;;;;;;;6114605;23;20335;-93
2023/03/02 15:54:35;;;;;;;;;;;;;;;;;;6143011;23;19920;-94
2023/03/02 15:57:19;;;;;;;;;;;;;;;;;;6083613;23;20358;-93
2023/03/02 15:59:57;;;;;;;;;;;;;;;;;;6058181;23;19927;-92
2023/03/02 16:02:23;;;;;;;;;;;;;;;;;;6054382;23;19988;-91
2023/03/02 16:05:01;;;;;;;;;;;;;;;;;;6055394;23;20733;-92
2023/03/02 16:07:30;;;;;;;;;;;;;;;;;;6057483;23;19920;-93
2023/03/02 16:10:03;;;;;;;;;;;;;;;;;;6062461;23;19956;-92
2023/03/02 16:12:29;;;;;;;;;;;;;;;;;;6059458;23;19933;-93
2023/03/02 16:14:55;;;;;;;;;;;;;;;;;;6086947;23;19921;-93
2023/03/02 16:17:21;;;;;;;;;;;;;;;;;;6092838;23;19916;-92
2023/03/02 16:19:56;;;;;;;;;;;;;;;;;;6175037;23;20358;-93
2023/03/02 16:22:22;;;;;;;;;;;;;;;;;;6197497;22;20240;-92
2023/03/02 16:43:35;;;;;;;;;;;;;;;;;;6240066;22;19907;-87
2023/03/02 16:46:02;;;;;;;;;;;;;;;;;;6183300;23;19959;-87
2023/03/02 17:03:05;;;;;;;;;;;;;;;;;;6238329;22;19923;-92
2023/03/02 17:05:31;;;;;;;;;;;;;;;;;;6203278;22;19994;-92
2023/03/02 17:08:05;;;;;;;;;;;;;;;;;;6210857;22;19927;-92
2023/03/02 17:10:31;;;;;;;;;;;;;;;;;;6203566;22;20357;-93
2023/03/02 17:13:16;;;;;;;;;;;;;;;;;;6235654;22;19919;-92
2023/03/02 17:15:42;;;;;;;;;;;;;;;;;;6233461;22;19919;-92
2023/03/02 17:18:08;;;;;;;;;;;;;;;;;;6234597;22;19981;-91
2023/03/02 17:20:34;;;;;;;;;;;;;;;;;;6235069;22;20295;-91
2023/03/02 17:23:01;;;;;;;;;;;;;;;;;;6262814;22;20330;-91
2023/03/02 17:35:51;;;;;;;;;;;;;;;;;;6246781;22;19912;-90
2023/03/02 17:38:26;;;;;;;;;;;;;;;;;;6205882;23;19997;-91
2023/03/02 17:44:01;;;;;;;;;;;;;;;;;;6208368;23;19923;-90
2023/03/02 17:54:59;;;;;;;;;;;;;;;;;;6235932;22;19923;-87
2023/03/02 17:58:51;;;;;;;;;;;;;;;;;;;;;
2023/03/02 18:00:41;;;;;;;;;;;;;;;;;;6206041;22;19919;-87
2023/03/02 18:06:23;;;;;;;;;;;;;;;;;;;;;
2023/03/02 18:09:25;;;;;;;;;;;;;;;;;;;;;
2023/03/02 18:12:10;;;;;;;;;;;;;;;;;;6126930;23;19924;-87
2023/03/02 18:18:19;;;;;;;;;;;;;;;;;;6129910;23;19924;-87
2023/03/02 18:20:59;;;;;;;;;;;;;;;;;;6139401;23;19928;-87
2023/03/02 18:30:19;;;;;;;;;;;;;;;;;;;;;